KH6ERO Weather Reports


Display with metric or nautical units.
time (UTC)temp
F
wind
direction
speed
MPH
gust
MPH
rain 1hr
in
rain 24hr
in
rain mn
in
humidity
%
barometer
mb
20240220212434 0 159 6.0 8.0 0.00 0.00 0.00 1023.9
20240220211932 0 109 3.0 5.0 0.00 0.00 0.00 1023.7
20240220211432 0 61 5.0 7.0 0.00 0.00 0.00 1023.8
20240220210930 0 107 9.0 11.0 0.00 0.00 0.00 1024.0
20240220210429 0 103 6.0 9.0 0.00 0.00 0.00 1024.0
20240220205928 0 113 8.0 10.0 0.00 0.00 0.00 1024.0
20240220205427 0 107 6.0 9.0 0.00 0.00 0.00 1023.9
20240220204926 0 78 6.0 8.0 0.00 0.00 0.00 1023.9
20240220204424 0 93 3.0 3.0 0.00 0.00 0.00 1024.1
20240220203922 0 117 4.0 6.0 0.00 0.00 0.00 1024.0
20240220203421 0 83 3.0 5.0 0.00 0.00 0.00 1024.2
20240220202921 0 116 7.0 8.0 0.00 0.00 0.00 1024.0
20240220202419 0 140 6.0 8.0 0.00 0.00 0.00 1024.1
20240220201918 0 138 5.0 7.0 0.00 0.00 0.00 1024.1
20240220201416 0 106 7.0 10.0 0.00 0.00 0.00 1024.0
20240220200916 0 131 5.0 9.0 0.00 0.00 0.00 1023.9
20240220200415 0 137 4.0 7.0 0.00 0.00 0.00 1024.0
20240220195914 0 83 4.0 6.0 0.00 0.00 0.00 1024.0
20240220195412 0 83 4.0 6.0 0.00 0.00 0.00 1024.0
20240220194911 0 150 4.0 5.0 0.00 0.00 0.00 1024.0
20240220194410 0 68 7.0 9.0 0.00 0.00 0.00 1024.3
20240220193908 0 112 7.0 10.0 0.00 0.00 0.00 1024.1
20240220193407 0 109 4.0 6.0 0.00 0.00 0.00 1024.2
20240220192905 0 94 9.0 11.0 0.00 0.00 0.00 1024.1
20240220192404 0 112 5.0 10.0 0.00 0.00 0.00 1023.9
20240220191902 0 73 7.0 8.0 0.00 0.00 0.00 1023.9
20240220191401 0 65 9.0 10.0 0.00 0.00 0.00 1023.9
20240220190900 0 92 5.0 9.0 0.00 0.00 0.00 1023.8
20240220190359 0 111 6.0 8.0 0.00 0.00 0.00 1023.8
20240220185857 0 53 4.0 6.0 0.00 0.00 0.00 1023.5
20240220185357 0 63 3.0 6.0 0.00 0.00 0.00 1023.6
20240220184857 0 114 1.0 1.0 0.00 0.00 0.00 1023.6
20240220184355 0 127 3.0 5.0 0.00 0.00 0.00 1023.3
20240220183854 0 86 6.0 8.0 0.00 0.00 0.00 1023.5
20240220183354 0 81 1.0 1.0 0.00 0.00 0.00 1023.5
20240220182852 0 57 4.0 6.0 0.00 0.00 0.00 1023.4
20240220182352 0 81 2.0 2.0 0.00 0.00 0.00 1023.4
20240220181850 0 43 3.0 5.0 0.00 0.00 0.00 1023.5
20240220181349 0 42 3.0 3.0 0.00 0.00 0.00 1023.3
20240220180848 0 42 3.0 3.0 0.00 0.00 0.00 1023.3
20240220180346 0 57 3.0 3.0 0.00 0.00 0.00 1023.3
20240220175846 0 42 4.0 5.0 0.00 0.00 0.00 1023.2
20240220175345 0 53 3.0 3.0 0.00 0.00 0.00 1023.1
20240220174845 0 64 5.0 7.0 0.00 0.00 0.00 1023.0
20240220174343 0 45 7.0 9.0 0.00 0.00 0.00 1023.1
20240220173842 0 77 8.0 10.0 0.00 0.00 0.00 1022.9
20240220173341 0 63 7.0 9.0 0.00 0.00 0.00 1023.0
20240220172840 0 98 7.0 8.0 0.00 0.00 0.00 1022.9
20240220172339 0 72 2.0 3.0 0.00 0.00 0.00 1022.9
20240220171839 0 80 3.0 3.0 0.00 0.00 0.00 1023.0
20240220171338 0 39 4.0 6.0 0.00 0.00 0.00 1022.8
20240220170837 0 58 5.0 6.0 0.00 0.00 0.00 1022.8
20240220170336 0 69 4.0 5.0 0.00 0.00 0.00 1022.4
20240220165835 0 63 4.0 5.0 0.00 0.00 0.00 1022.6
20240220165333 0 46 4.0 5.0 0.00 0.00 0.00 1022.6
20240220164832 0 47 4.0 6.0 0.00 0.00 0.00 1022.6
20240220164330 0 69 3.0 3.0 0.00 0.00 0.00 1022.6
20240220163830 0 58 3.0 3.0 0.00 0.00 0.00 1022.6
20240220163325 0 43 3.0 3.0 0.00 0.00 0.00 1022.4
20240220162824 0 32 4.0 6.0 0.00 0.00 0.00 1022.3
20240220162322 0 45 2.0 3.0 0.00 0.00 0.00 1022.2
20240220161821 0 49 3.0 3.0 0.00 0.00 0.00 1022.2
20240220161319 0 87 3.0 5.0 0.00 0.00 0.00 1022.2
20240220160818 0 100 4.0 6.0 0.00 0.00 0.00 1022.2
20240220160318 0 63 4.0 5.0 0.00 0.00 0.00 1021.7
20240220155818 0 83 4.0 6.0 0.00 0.00 0.00 1022.0
20240220155317 0 88 6.0 7.0 0.00 0.00 0.00 1021.8
20240220154817 0 77 5.0 7.0 0.00 0.00 0.00 1021.8
20240220154317 0 113 5.0 6.0 0.00 0.00 0.00 1021.6
20240220153816 0 47 1.0 2.0 0.00 0.00 0.00 1021.7
20240220153316 0 67 4.0 6.0 0.00 0.00 0.00 1021.8
20240220152815 0 96 4.0 6.0 0.00 0.00 0.00 1021.6
20240220152315 0 59 3.0 3.0 0.00 0.00 0.00 1021.5
20240220151814 0 86 2.0 2.0 0.00 0.00 0.00 1021.9
20240220151313 0 78 4.0 6.0 0.00 0.00 0.00 1021.6
20240220150811 0 80 5.0 6.0 0.00 0.00 0.00 1021.7
20240220150311 0 85 5.0 6.0 0.00 0.00 0.00 1021.7
20240220145810 0 95 4.0 6.0 0.00 0.00 0.00 1021.7
20240220145309 0 85 4.0 7.0 0.00 0.00 0.00 1021.5
20240220144809 0 112 6.0 9.0 0.00 0.00 0.00 1021.7
20240220144307 0 119 3.0 5.0 0.00 0.00 0.00 1021.7
20240220143806 0 93 5.0 6.0 0.00 0.00 0.00 1021.6
20240220143304 0 82 3.0 3.0 0.00 0.00 0.00 1021.8
20240220142803 0 56 4.0 6.0 0.00 0.00 0.00 1021.6
20240220142305 0 71 4.0 6.0 0.00 0.00 0.00 1021.7
20240220141801 0 117 5.0 7.0 0.00 0.00 0.00 1021.7
20240220141259 0 37 1.0 2.0 0.00 0.00 0.00 1021.6
20240220140758 0 68 4.0 6.0 0.00 0.00 0.00 1021.7
20240220140256 0 62 5.0 6.0 0.00 0.00 0.00 1021.5
20240220135755 0 84 4.0 6.0 0.00 0.00 0.00 1021.8
20240220135255 0 69 7.0 8.0 0.00 0.00 0.00 1021.9
20240220134752 0 78 3.0 5.0 0.00 0.00 0.00 1021.8
20240220134250 0 87 4.0 6.0 0.00 0.00 0.00 1021.8
20240220133749 0 64 4.0 5.0 0.00 0.00 0.00 1021.7
20240220133246 0 105 8.0 9.0 0.00 0.00 0.00 1021.8
20240220132746 0 89 5.0 6.0 0.00 0.00 0.00 1022.0
20240220132244 0 105 6.0 8.0 0.00 0.00 0.00 1022.0
20240220131743 0 95 4.0 6.0 0.00 0.00 0.00 1022.0
20240220131241 0 80 3.0 5.0 0.00 0.00 0.00 1021.9
20240220130739 0 54 3.0 5.0 0.00 0.00 0.00 1021.9
20240220130231 0 85 2.0 2.0 0.00 0.00 0.00 1022.1
20240220125730 0 110 3.0 3.0 0.00 0.00 0.00 1022.0
20240220125230 0 96 2.0 2.0 0.00 0.00 0.00 1021.9
20240220124730 0 98 3.0 3.0 0.00 0.00 0.00 1022.1
20240220124227 0 84 3.0 3.0 0.00 0.00 0.00 1022.3
20240220123727 0 91 3.0 3.0 0.00 0.00 0.00 1022.3
20240220123225 0 108 1.0 1.0 0.00 0.00 0.00 1022.1
20240220122724 0 111 3.0 3.0 0.00 0.00 0.00 1022.1
20240220122221 0 82 3.0 3.0 0.00 0.00 0.00 1022.3
20240220121719 0 92 2.0 2.0 0.00 0.00 0.00 1022.2
20240220121218 0 89 4.0 5.0 0.00 0.00 0.00 1022.3
20240220120717 0 104 3.0 3.0 0.00 0.00 0.00 1022.6
20240220120215 0 67 2.0 2.0 0.00 0.00 0.00 1022.3
20240220115714 0 87 3.0 3.0 0.00 0.00 0.00 1022.6
20240220115212 0 87 5.0 5.0 0.00 0.00 0.00 1022.3
20240220114711 0 128 7.0 8.0 0.00 0.00 0.00 1022.7
20240220114211 0 90 5.0 6.0 0.00 0.00 0.00 1022.7
20240220113709 0 89 3.0 3.0 0.00 0.00 0.00 1022.7
20240220113208 0 93 5.0 7.0 0.00 0.00 0.00 1022.8
20240220112707 0 91 5.0 6.0 0.00 0.00 0.00 1022.9
20240220112205 0 93 6.0 9.0 0.00 0.00 0.00 1022.9
20240220111703 0 69 3.0 5.0 0.00 0.00 0.00 1022.9
20240220111201 0 104 4.0 6.0 0.00 0.00 0.00 1022.8
20240220110659 0 127 7.0 8.0 0.00 0.00 0.00 1023.0
20240220110157 0 126 4.0 6.0 0.00 0.00 0.00 1023.0
20240220105655 0 79 5.0 7.0 0.00 0.00 0.00 1023.0
20240220105153 0 76 3.0 5.0 0.00 0.00 0.00 1023.1
20240220104652 0 89 4.0 6.0 0.00 0.00 0.00 1023.3
20240220104152 0 51 4.0 5.0 0.00 0.00 0.00 1023.0
20240220103652 0 88 1.0 1.0 0.00 0.00 0.00 1023.1
20240220103152 0 117 1.0 2.0 0.00 0.00 0.00 1023.3
20240220102651 0 91 2.0 3.0 0.00 0.00 0.00 1023.4
20240220102150 0 109 2.0 3.0 0.00 0.00 0.00 1023.2
20240220101648 0 77 5.0 6.0 0.00 0.00 0.00 1023.2
20240220101148 0 60 3.0 3.0 0.00 0.00 0.00 1023.2
20240220100648 0 92 4.0 5.0 0.00 0.00 0.00 1023.2
20240220100147 0 100 5.0 6.0 0.00 0.00 0.00 1023.2
20240220095647 0 66 3.0 3.0 0.00 0.00 0.00 1023.3
20240220095147 0 93 1.0 2.0 0.00 0.00 0.00 1023.2
20240220094647 0 111 2.0 3.0 0.00 0.00 0.00 1023.1
20240220094146 0 129 5.0 7.0 0.00 0.00 0.00 1023.3
20240220093645 0 90 5.0 7.0 0.00 0.00 0.00 1023.2
20240220093144 0 126 1.0 2.0 0.00 0.00 0.00 1023.4
20240220092642 0 141 5.0 7.0 0.00 0.00 0.00 1023.3
20240220092141 0 94 2.0 2.0 0.00 0.00 0.00 1023.4
20240220091641 0 89 5.0 6.0 0.00 0.00 0.00 1023.4
20240220091140 0 94 5.0 9.0 0.00 0.00 0.00 1023.4
20240220090639 0 121 5.0 6.0 0.00 0.00 0.00 1023.5
20240220090137 0 88 3.0 3.0 0.00 0.00 0.00 1023.3
20240220085635 0 75 8.0 9.0 0.00 0.00 0.00 1023.3
20240220085133 0 108 3.0 5.0 0.00 0.00 0.00 1023.3
20240220084632 0 117 5.0 6.0 0.00 0.00 0.00 1023.3
20240220084130 0 85 7.0 9.0 0.00 0.00 0.00 1023.5
20240220083629 0 131 5.0 6.0 0.00 0.00 0.00 1023.5
20240220083127 0 115 3.0 3.0 0.00 0.00 0.00 1023.4
20240220082627 0 93 1.0 1.0 0.00 0.00 0.00 1023.5
20240220082126 0 68 5.0 7.0 0.00 0.00 0.00 1023.4
20240220081625 0 130 7.0 11.0 0.00 0.00 0.00 1023.4
20240220081125 0 126 4.0 5.0 0.00 0.00 0.00 1023.5
20240220080625 0 155 5.0 6.0 0.00 0.00 0.00 1023.3
20240220080125 0 140 5.0 6.0 0.00 0.00 0.00 1023.5
20240220075623 0 96 5.0 6.0 0.00 0.00 0.00 1023.4
20240220075121 0 89 6.0 7.0 0.00 0.00 0.00 1023.4
20240220074620 0 114 2.0 3.0 0.00 0.00 0.00 1023.3
20240220074121 0 101 5.0 6.0 0.00 0.00 0.00 1023.4
20240220073619 0 111 5.0 5.0 0.00 0.00 0.00 1023.3
20240220073117 0 73 3.0 3.0 0.00 0.00 0.00 1023.5
20240220072615 0 78 1.0 1.0 0.00 0.00 0.00 1023.3
20240220072114 0 83 7.0 8.0 0.00 0.00 0.00 1023.3
20240220071613 0 138 3.0 5.0 0.00 0.00 0.00 1023.3
20240220071113 0 84 5.0 8.0 0.00 0.00 0.00 1023.3
20240220070612 0 101 4.0 5.0 0.00 0.00 0.00 1023.4
20240220070110 0 92 7.0 8.0 0.00 0.00 0.00 1023.2
20240220065610 0 86 3.0 3.0 0.00 0.00 0.00 1023.3
20240220065111 0 102 3.0 3.0 0.00 0.00 0.00 1023.1
20240220064610 0 123 2.0 3.0 0.00 0.00 0.00 1023.2
20240220064109 0 101 5.0 6.0 0.00 0.00 0.00 1023.2
20240220063607 0 67 4.0 7.0 0.00 0.00 0.00 1023.3
20240220063107 0 102 3.0 3.0 0.00 0.00 0.00 1023.2
20240220062606 0 103 1.0 2.0 0.00 0.00 0.00 1023.1
20240220062104 0 78 2.0 2.0 0.00 0.00 0.00 1023.0
20240220061603 0 129 2.0 3.0 0.00 0.00 0.00 1023.1
20240220061101 0 74 5.0 7.0 0.00 0.00 0.00 1023.1
20240220060600 0 92 3.0 3.0 0.00 0.00 0.00 1023.1
20240220060100 0 123 3.0 3.0 0.00 0.00 0.00 1023.0
20240220055559 0 115 1.0 2.0 0.00 0.00 0.00 1023.1
20240220055058 0 83 3.0 3.0 0.00 0.00 0.00 1023.1
20240220054558 0 88 2.0 2.0 0.00 0.00 0.00 1022.9
20240220054056 0 96 3.0 3.0 0.00 0.00 0.00 1023.0
20240220053554 0 102 1.0 1.0 0.00 0.00 0.00 1022.9
20240220053054 0 114 2.0 2.0 0.00 0.00 0.00 1023.0
20240220052551 0 108 2.0 3.0 0.00 0.00 0.00 1022.9
20240220052052 0 121 1.0 1.0 0.00 0.00 0.00 1022.8
20240220051551 0 35 5.0 6.0 0.00 0.00 0.00 1022.8
20240220051049 0 105 3.0 5.0 0.00 0.00 0.00 1022.8
20240220050550 0 105 3.0 3.0 0.00 0.00 0.00 1022.8
20240220050049 0 115 5.0 6.0 0.00 0.00 0.00 1022.6
20240220045548 0 86 4.0 5.0 0.00 0.00 0.00 1022.3
20240220045047 0 97 3.0 5.0 0.00 0.00 0.00 1022.6
20240220044547 0 91 6.0 7.0 0.00 0.00 0.00 1022.3
20240220044045 0 115 3.0 5.0 0.00 0.00 0.00 1022.4
20240220043543 0 86 3.0 3.0 0.00 0.00 0.00 1022.4
20240220043042 0 125 2.0 2.0 0.00 0.00 0.00 1022.4
20240220042542 0 63 4.0 6.0 0.00 0.00 0.00 1022.3
20240220042040 0 111 3.0 5.0 0.00 0.00 0.00 1022.1
20240220041538 0 79 3.0 3.0 0.00 0.00 0.00 1022.3
20240220041038 0 108 4.0 6.0 0.00 0.00 0.00 1022.3
20240220040538 0 103 5.0 6.0 0.00 0.00 0.00 1022.2
20240220040037 0 112 3.0 7.0 0.00 0.00 0.00 1022.2
20240220035536 0 131 4.0 6.0 0.00 0.00 0.00 1022.0
20240220035035 0 125 5.0 7.0 0.00 0.00 0.00 1022.1
20240220034533 0 60 9.0 14.0 0.00 0.00 0.00 1021.9
20240220034033 0 51 9.0 10.0 0.00 0.00 0.00 1022.0
20240220033533 0 78 2.0 3.0 0.00 0.00 0.00 1022.0
20240220033032 0 74 6.0 7.0 0.00 0.00 0.00 1022.0
20240220032531 0 100 3.0 5.0 0.00 0.00 0.00 1022.1
20240220032031 0 111 6.0 8.0 0.00 0.00 0.00 1021.9
20240220031530 0 76 7.0 9.0 0.00 0.00 0.00 1021.8
20240220031029 0 94 1.0 1.0 0.00 0.00 0.00 1021.9
20240220030527 0 20 8.0 11.0 0.00 0.00 0.00 1021.9
20240220030027 0 91 5.0 6.0 0.00 0.00 0.00 1021.8
20240220025527 0 65 8.0 13.0 0.00 0.00 0.00 1021.9
20240220025025 0 102 7.0 9.0 0.00 0.00 0.00 1021.7
20240220024523 0 65 4.0 6.0 0.00 0.00 0.00 1021.7
20240220024021 0 101 2.0 2.0 0.00 0.00 0.00 1021.8
20240220023511 0 137 7.0 11.0 0.00 0.00 0.00 1021.7
20240220023008 0 119 9.0 14.0 0.00 0.00 0.00 1021.5
20240220022508 0 139 5.0 9.0 0.00 0.00 0.00 1021.5
20240220022008 0 89 6.0 9.0 0.00 0.00 0.00 1021.5
20240220021507 0 86 8.0 9.0 0.00 0.00 0.00 1021.3
20240220021006 0 105 6.0 8.0 0.00 0.00 0.00 1021.5
20240220020505 0 100 7.0 8.0 0.00 0.00 0.00 1021.5
20240220020005 0 96 3.0 3.0 0.00 0.00 0.00 1021.3
20240220015503 0 86 5.0 7.0 0.00 0.00 0.00 1021.1
20240220015003 0 112 5.0 8.0 0.00 0.00 0.00 1021.1
20240220014502 0 72 4.0 5.0 0.00 0.00 0.00 1021.4
20240220014001 0 153 6.0 9.0 0.00 0.00 0.00 1021.2
20240220013500 0 131 6.0 10.0 0.00 0.00 0.00 1021.3
20240220013000 0 103 8.0 10.0 0.00 0.00 0.00 1021.3
20240220012500 0 106 4.0 6.0 0.00 0.00 0.00 1021.3
20240220011959 0 49 6.0 8.0 0.00 0.00 0.00 1021.3
20240220011459 0 144 3.0 6.0 0.00 0.00 0.00 1021.3
20240220010958 0 115 5.0 7.0 0.00 0.00 0.00 1021.3
20240220010457 0 55 7.0 8.0 0.00 0.00 0.00 1021.2
20240220005956 0 129 3.0 3.0 0.00 0.00 0.00 1021.4
20240220005455 0 161 7.0 9.0 0.00 0.00 0.00 1021.4
20240220004956 0 128 8.0 11.0 0.00 0.00 0.00 1021.4
20240220004455 0 108 5.0 7.0 0.00 0.00 0.00 1021.5
20240220003955 0 133 9.0 17.0 0.00 0.00 0.00 1021.7
20240220003456 0 129 9.0 13.0 0.00 0.00 0.00 1021.6
20240220002955 0 144 6.0 8.0 0.00 0.00 0.00 1021.6
20240220002453 0 204 5.0 9.0 0.00 0.00 0.00 1021.7
20240220001952 0 96 13.0 17.0 0.00 0.00 0.00 1021.8
20240220001453 0 121 11.0 13.0 0.00 0.00 0.00 1021.8
20240220000952 0 89 10.0 13.0 0.00 0.00 0.00 1021.9
20240220000450 0 51 5.0 8.0 0.00 0.00 0.00 1021.9
20240219235949 0 91 4.0 7.0 0.00 0.00 0.00 1022.1
20240219235448 0 110 3.0 6.0 0.00 0.00 0.00 1021.9
20240219234947 0 96 5.0 8.0 0.00 0.00 0.00 1022.1
20240219234447 0 105 6.0 8.0 0.00 0.00 0.00 1022.2
20240219233946 0 86 5.0 6.0 0.00 0.00 0.00 1022.3
20240219233446 0 99 9.0 11.0 0.00 0.00 0.00 1022.3
20240219232945 0 40 6.0 9.0 0.00 0.00 0.00 1022.7
20240219232444 0 158 5.0 7.0 0.00 0.00 0.00 1022.6
20240219231943 0 85 6.0 8.0 0.00 0.00 0.00 1022.7
20240219231442 0 143 9.0 13.0 0.00 0.00 0.00 1022.8
20240219230942 0 128 5.0 6.0 0.00 0.00 0.00 1022.8
20240219230441 0 164 5.0 7.0 0.00 0.00 0.00 1022.7
20240219225940 0 83 11.0 13.0 0.00 0.00 0.00 1023.0
20240219225439 0 73 5.0 8.0 0.00 0.00 0.00 1023.1
20240219224939 0 90 4.0 7.0 0.00 0.00 0.00 1023.1
20240219224438 0 123 10.0 15.0 0.00 0.00 0.00 1023.3
20240219223938 0 91 3.0 3.0 0.00 0.00 0.00 1023.4
20240219223436 0 104 5.0 8.0 0.00 0.00 0.00 1023.5
20240219222936 0 18 4.0 5.0 0.00 0.00 0.00 1023.5
20240219222435 0 354 6.0 8.0 0.00 0.00 0.00 1023.6
20240219221917 0 165 5.0 7.0 0.00 0.00 0.00 1023.8
20240219221415 0 120 7.0 9.0 0.00 0.00 0.00 1023.9
20240219220914 0 61 9.0 13.0 0.00 0.00 0.00 1024.0
20240219220413 0 60 9.0 15.0 0.00 0.00 0.00 1023.9
20240219215911 0 70 7.0 9.0 0.00 0.00 0.00 1024.1
20240219215411 0 145 5.0 7.0 0.00 0.00 0.00 1024.2
20240219214910 0 116 10.0 13.0 0.00 0.00 0.00 1024.2
20240219214409 0 112 10.0 11.0 0.00 0.00 0.00 1024.0
20240219213908 0 87 5.0 6.0 0.00 0.00 0.00 1024.0
20240219213407 0 129 6.0 7.0 0.00 0.00 0.00 1024.1
20240219212904 0 133 8.0 10.0 0.00 0.00 0.00 1024.3